Time;durP1;ratioP1;P1;durP2;ratioP2;P2;SDS_P1;SDS_P2;PMS_P1;PMS_P2;Temp;Humidity;BMP_temperature;BMP_pressure;BME280_temperature;BME280_humidity;BME280_pressure;Samples;Min_cycle;Max_cycle;Signal;HPM_P1;HPM_P2
2022/08/17 00:01:36;;;;;;;8.80;5.90;;;;;;;22.54;94.74;99560.72;5135869;27;20043;-74
2022/08/17 00:04:20;;;;;;;10.27;6.30;;;;;;;22.40;97.19;99564.28;5136307;27;20055;-74
2022/08/17 00:06:52;;;;;;;8.38;6.20;;;;;;;22.33;97.71;99563.31;5135876;27;20072;-74
2022/08/17 00:09:20;;;;;;;8.50;5.93;;;;;;;22.48;95.47;99556.03;5135980;27;20042;-74
2022/08/17 00:11:49;;;;;;;7.70;5.80;;;;;;;22.62;93.41;99549.75;5134196;27;20295;-74
2022/08/17 00:14:37;;;;;;;7.65;5.70;;;;;;;22.55;93.80;99551.53;5135898;27;20039;-74
2022/08/17 00:17:05;;;;;;;9.00;6.22;;;;;;;22.45;94.77;99556.41;5136012;27;20542;-73
2022/08/17 00:19:34;;;;;;;9.45;5.85;;;;;;;22.45;94.00;99559.13;5135616;27;20035;-73
2022/08/17 00:22:05;;;;;;;8.18;5.93;;;;;;;22.51;92.62;99555.66;5135741;27;20450;-73
2022/08/17 00:24:53;;;;;;;8.77;6.03;;;;;;;22.41;93.41;99549.66;5135765;27;20051;-73
2022/08/17 00:27:22;;;;;;;10.00;6.63;;;;;;;22.45;92.96;99559.13;5135590;27;20096;-72
2022/08/17 00:29:51;;;;;;;8.20;6.05;;;;;;;22.38;93.66;99560.88;5135618;27;20095;-71
2022/08/17 00:32:19;;;;;;;10.13;6.57;;;;;;;22.25;95.47;99554.22;5135526;27;20047;-71
2022/08/17 00:35:10;;;;;;;8.73;6.30;;;;;;;22.41;93.74;99555.09;5135734;27;20104;-72
2022/08/17 00:37:40;;;;;;;11.90;6.82;;;;;;;22.22;95.64;99551.88;5135631;27;20427;-72
2022/08/17 00:40:12;;;;;;;8.10;5.85;;;;;;;22.08;99.24;99549.94;5135719;27;20039;-71
2022/08/17 00:42:42;;;;;;;8.20;5.93;;;;;;;22.07;99.24;99552.84;5135260;27;20043;-72
2022/08/17 00:45:12;;;;;;;9.98;6.65;;;;;;;22.14;96.91;99543.78;5135303;27;20093;-73
2022/08/17 00:47:42;;;;;;;8.93;6.40;;;;;;;22.20;96.48;99547.66;5133032;27;20043;-73
2022/08/17 00:50:15;;;;;;;10.32;6.80;;;;;;;22.16;97.16;99540.88;5135415;27;20043;-72
2022/08/17 00:52:47;;;;;;;;;;;;;;;22.17;97.39;99548.84;5135508;27;20043;-72
2022/08/17 00:55:17;;;;;;;9.95;6.45;;;;;;;22.21;97.00;99552.06;5135116;27;19920;-74
2022/08/17 00:57:50;;;;;;;9.68;7.60;;;;;;;22.18;96.81;99549.69;5133644;27;20104;-73
2022/08/17 01:00:27;;;;;;;10.02;6.55;;;;;;;22.16;96.87;99559.91;5133877;27;20043;-72
2022/08/17 01:02:58;;;;;;;9.20;6.70;;;;;;;22.11;97.05;99559.63;5135085;27;20070;-72
2022/08/17 01:05:30;;;;;;;9.05;6.22;;;;;;;22.10;96.35;99564.22;5134677;27;20059;-71
2022/08/17 01:08:02;;;;;;;11.80;6.90;;;;;;;22.03;96.42;99567.81;5134972;27;20039;-71
2022/08/17 01:10:42;;;;;;;8.57;6.30;;;;;;;21.95;98.82;99561.41;5135040;27;20411;-71
2022/08/17 01:13:32;;;;;;;9.02;6.20;;;;;;;21.98;100.00;99562.91;5134833;27;20100;-71
2022/08/17 01:16:14;;;;;;;8.70;6.47;;;;;;;21.82;100.00;99561.19;5134736;27;20442;-71
2022/08/17 01:18:44;;;;;;;10.10;6.40;;;;;;;21.71;100.00;99559.75;5134672;27;20068;-71
2022/08/17 01:21:20;;;;;;;10.05;6.53;;;;;;;21.84;100.00;99561.00;5134745;27;20066;-73
2022/08/17 01:23:49;;;;;;;8.48;6.70;;;;;;;21.75;100.00;99564.78;5134718;27;20092;-73
2022/08/17 01:26:18;;;;;;;9.00;6.38;;;;;;;21.69;100.00;99566.34;5134538;27;20041;-72
2022/08/17 01:28:46;;;;;;;9.88;6.80;;;;;;;21.57;100.00;99562.38;5134014;27;20046;-70
2022/08/17 01:31:23;;;;;;;8.88;6.75;;;;;;;21.52;100.00;99560.22;5134441;27;20094;-71
2022/08/17 01:33:51;;;;;;;10.90;6.78;;;;;;;21.63;100.00;99570.66;5134226;27;20544;-71
2022/08/17 01:36:19;;;;;;;9.30;6.70;;;;;;;21.60;100.00;99573.69;5134509;27;20402;-72
2022/08/17 01:38:49;;;;;;;9.40;6.63;;;;;;;21.49;100.00;99579.53;5134104;27;20062;-72
2022/08/17 01:41:21;;;;;;;8.48;6.32;;;;;;;21.47;100.00;99578.88;5134145;27;20137;-73
2022/08/17 01:43:54;;;;;;;10.63;7.22;;;;;;;21.56;100.00;99575.09;5134226;27;20126;-73
2022/08/17 01:46:25;;;;;;;10.00;6.63;;;;;;;21.55;100.00;99576.13;5134481;27;20088;-72
2022/08/17 01:48:54;;;;;;;8.73;6.70;;;;;;;21.50;100.00;99577.66;5134063;27;20597;-73
2022/08/17 01:51:22;;;;;;;11.32;6.75;;;;;;;21.54;100.00;99574.44;5134147;27;20086;-75
2022/08/17 01:53:56;;;;;;;9.48;6.75;;;;;;;21.57;100.00;99579.50;5134280;27;20058;-74
2022/08/17 01:56:26;;;;;;;8.15;6.40;;;;;;;21.60;100.00;99576.41;5134449;27;20042;-76
2022/08/17 01:58:54;;;;;;;10.63;6.93;;;;;;;21.60;100.00;99583.69;5133953;27;20039;-77
2022/08/17 02:01:25;;;;;;;11.27;7.53;;;;;;;21.64;100.00;99575.03;5134070;27;20043;-75
2022/08/17 02:03:54;;;;;;;11.27;7.53;;;;;;;21.65;100.00;99576.72;5133670;27;20043;-70
2022/08/17 02:06:30;;;;;;;9.60;7.35;;;;;;;21.53;100.00;99572.75;5134137;27;20039;-70
2022/08/17 02:09:20;;;;;;;11.05;7.68;;;;;;;21.62;100.00;99571.66;5133911;28;20043;-71
2022/08/17 02:11:53;;;;;;;10.30;7.53;;;;;;;21.73;100.00;99566.84;5133651;28;20050;-71
2022/08/17 02:14:22;;;;;;;9.90;7.63;;;;;;;21.55;100.00;99576.13;5133875;27;20415;-71
2022/08/17 02:16:50;;;;;;;10.05;7.47;;;;;;;21.39;100.00;99570.78;5133925;27;20175;-70
2022/08/17 02:19:19;;;;;;;9.38;7.20;;;;;;;21.24;100.00;99567.97;5133886;27;20047;-71
2022/08/17 02:21:50;;;;;;;11.20;7.53;;;;;;;21.36;100.00;99576.56;5133595;28;20039;-70
2022/08/17 02:24:23;;;;;;;11.10;7.82;;;;;;;21.32;100.00;99567.91;5134265;28;20050;-74
2022/08/17 02:27:11;;;;;;;10.85;8.25;;;;;;;21.18;100.00;99567.81;5133799;27;20046;-73
2022/08/17 02:29:40;;;;;;;14.02;7.55;;;;;;;21.01;100.00;99567.88;5133624;28;20093;-74
2022/08/17 02:32:16;;;;;;;9.35;7.35;;;;;;;20.96;100.00;99569.44;5134586;28;20404;-73
2022/08/17 02:34:56;;;;;;;9.40;7.15;;;;;;;20.97;100.00;99568.41;5133640;27;20039;-74
2022/08/17 02:37:25;;;;;;;9.13;6.97;;;;;;;20.88;100.00;99564.88;5133600;27;20407;-74
2022/08/17 02:39:56;;;;;;;11.38;7.20;;;;;;;20.86;100.00;99569.66;5133424;27;20043;-75
2022/08/17 02:42:27;;;;;;;10.02;7.45;;;;;;;20.84;100.00;99568.94;5133991;28;20480;-74
2022/08/17 02:44:56;;;;;;;14.02;8.38;;;;;;;20.73;100.00;99566.63;5133632;28;20047;-75
2022/08/17 02:47:24;;;;;;;11.77;8.13;;;;;;;20.95;100.00;99563.19;5133788;27;20049;-74
2022/08/17 02:49:55;;;;;;;11.30;8.38;;;;;;;21.00;100.00;99566.19;5133487;28;20047;-75
2022/08/17 02:52:26;;;;;;;9.48;7.35;;;;;;;21.00;100.00;99565.34;5133755;27;20051;-76
2022/08/17 02:55:15;;;;;;;10.43;7.70;;;;;;;20.82;100.00;99571.00;5133767;28;20043;-75
2022/08/17 02:57:44;;;;;;;10.02;7.15;;;;;;;20.78;100.00;99575.09;5133350;28;20067;-75
2022/08/17 03:00:17;;;;;;;10.93;8.30;;;;;;;20.72;100.00;99565.78;5133923;28;20472;-74
2022/08/17 03:02:45;;;;;;;10.60;8.55;;;;;;;20.73;100.00;99575.59;5133533;27;20036;-75
2022/08/17 03:05:16;;;;;;;10.60;8.23;;;;;;;20.82;100.00;99571.00;5133357;28;20047;-71
2022/08/17 03:07:45;;;;;;;10.15;7.30;;;;;;;20.63;100.00;99568.69;5131984;27;20088;-71
2022/08/17 03:10:16;;;;;;;12.27;8.10;;;;;;;20.63;100.00;99568.69;5133156;27;20108;-70
2022/08/17 03:12:45;;;;;;;11.65;8.02;;;;;;;20.54;100.00;99565.97;5137200;27;20047;-70
2022/08/17 03:15:16;;;;;;;10.23;7.75;;;;;;;20.56;100.00;99573.97;5137258;27;20043;-70
2022/08/17 03:17:45;;;;;;;11.30;7.63;;;;;;;20.53;100.00;99569.72;5137064;27;20486;-70
2022/08/17 03:20:16;;;;;;;11.65;7.90;;;;;;;20.52;100.00;99575.31;5137060;27;20047;-70
2022/08/17 03:22:46;;;;;;;12.98;8.50;;;;;;;20.34;100.00;99575.47;5136859;27;20043;-73
2022/08/17 03:25:25;;;;;;;11.55;8.27;;;;;;;20.40;100.00;99576.66;5136776;27;20043;-73
2022/08/17 03:27:54;;;;;;;12.07;8.00;;;;;;;20.50;100.00;99589.03;5136969;27;20096;-72
2022/08/17 03:30:23;;;;;;;10.75;7.93;;;;;;;20.53;100.00;99590.53;5136793;27;20071;-72
2022/08/17 03:32:54;;;;;;;11.73;8.20;;;;;;;20.46;100.00;99595.81;5136599;27;20042;-72
2022/08/17 03:35:25;;;;;;;11.25;8.38;;;;;;;20.37;100.00;99594.13;5136958;27;20047;-73
2022/08/17 03:37:54;;;;;;;11.82;8.00;;;;;;;20.23;100.00;99594.78;5136247;27;20134;-74
2022/08/17 03:40:30;;;;;;;13.15;8.20;;;;;;;20.17;100.00;99595.44;5136845;27;20039;-72
2022/08/17 03:43:20;;;;;;;11.85;8.10;;;;;;;20.09;100.00;99593.63;5136704;27;20126;-73
2022/08/17 03:57:14;;;;;;;11.98;7.72;;;;;;;20.44;100.00;99611.38;5136424;27;20206;-72
2022/08/17 03:59:42;;;;;;;10.95;8.00;;;;;;;20.52;100.00;99611.38;5136229;27;20080;-75
2022/08/17 04:02:17;;;;;;;13.13;7.55;;;;;;;20.56;100.00;99617.31;5136224;27;20074;-73
2022/08/17 04:04:45;;;;;;;12.55;7.55;;;;;;;20.65;100.00;99612.69;5136051;27;20054;-74
2022/08/17 04:07:14;;;;;;;12.55;8.20;;;;;;;20.74;100.00;99600.81;5135814;27;20051;-72
2022/08/17 04:09:43;;;;;;;10.93;7.63;;;;;;;20.78;100.00;99605.75;5136151;27;20096;-72
2022/08/17 04:12:15;;;;;;;9.93;7.60;;;;;;;20.79;100.00;99601.16;5136227;27;20089;-73
2022/08/17 04:14:43;;;;;;;13.15;8.57;;;;;;;20.66;100.00;99609.00;5136067;27;20039;-74
2022/08/17 04:17:23;;;;;;;11.32;7.53;;;;;;;20.56;100.00;99612.75;5135911;27;20039;-73
2022/08/17 04:19:53;;;;;;;12.02;7.90;;;;;;;20.98;100.00;99611.63;5135767;27;20122;-73
2022/08/17 04:22:22;;;;;;;11.95;7.68;;;;;;;21.22;100.00;99617.94;5135703;27;20047;-73
2022/08/17 04:25:13;;;;;;;10.95;7.65;;;;;;;21.48;100.00;99617.69;5135587;27;20540;-72
2022/08/17 04:27:43;;;;;;;13.60;7.35;;;;;;;21.65;100.00;99619.31;5135573;27;20043;-73
2022/08/17 04:30:12;;;;;;;14.48;7.82;;;;;;;21.83;100.00;99624.47;5135439;27;20035;-74
2022/08/17 04:32:52;;;;;;;10.48;8.00;;;;;;;22.01;100.00;99619.59;5135531;27;20095;-73
2022/08/17 04:35:36;;;;;;;11.77;7.57;;;;;;;22.22;100.00;99625.22;5134509;27;20043;-73
2022/08/17 04:38:05;;;;;;;10.82;8.25;;;;;;;22.05;100.00;99626.34;5135288;27;20505;-74
2022/08/17 04:43:22;;;;;;;9.35;6.85;;;;;;;22.63;100.00;99624.00;5135513;27;20039;-72
2022/08/17 04:45:52;;;;;;;10.98;7.93;;;;;;;22.53;100.00;99624.25;5135122;27;20043;-73
2022/08/17 04:48:24;;;;;;;;;;;;;;;22.72;100.00;99621.00;5134680;27;20155;-72
2022/08/17 04:51:05;;;;;;;;;;;;;;;22.66;100.00;99629.06;5135377;27;20013;-73
2022/08/17 04:53:33;;;;;;;;;;;;;;;22.56;100.00;99623.88;5135573;27;19972;-74
2022/08/17 04:56:01;;;;;;;;;;;;;;;22.48;100.00;99632.09;5135228;27;20402;-74
2022/08/17 04:58:30;;;;;;;;;;;;;;;22.48;100.00;99627.50;5135570;27;19972;-74
2022/08/17 05:00:58;;;;;;;;;;;;;;;22.64;100.00;99631.97;5135099;27;19919;-74
2022/08/17 05:03:26;;;;;;;;;;;;;;;22.58;100.00;99638.13;5135442;27;19920;-74
2022/08/17 05:05:54;;;;;;;;;;;;;;;22.74;100.00;99637.97;5135606;27;19919;-74
2022/08/17 05:08:22;;;;;;;;;;;;;;;22.80;100.00;99642.69;5135359;27;20022;-73
2022/08/17 05:10:50;;;;;;;;;;;;;;;22.93;100.00;99646.66;5135054;27;20014;-74
2022/08/17 05:13:20;;;;;;;;;;;;;;;23.02;99.24;99648.25;5135113;27;19919;-72
2022/08/17 05:15:53;;;;;;;;;;;;;;;23.18;96.58;99650.81;5134997;27;19965;-72
2022/08/17 05:18:21;;;;;;;;;;;;;;;23.43;91.72;99649.44;5135184;27;19920;-71
2022/08/17 05:20:51;;;;;;;;;;;;;;;23.37;92.31;99657.53;5134839;27;20035;-72
2022/08/17 05:23:20;;;;;;;;;;;;;;;23.63;89.92;99654.31;5135226;27;19927;-70
2022/08/17 05:25:49;;;;;;;;;;;;;;;23.74;87.83;99644.81;5135268;27;20370;-70
2022/08/17 05:28:18;;;;;;;;;;;;;;;23.85;86.55;99639.75;5133525;27;19941;-74
2022/08/17 05:30:55;;;;;;;;;;;;;;;24.38;81.42;99647.63;5134596;27;19924;-72
2022/08/17 05:33:24;;;;;;;;;;;;;;;24.30;79.66;99643.09;5134367;27;19924;-71
2022/08/17 05:35:53;;;;;;;;;;;;;;;24.71;76.52;99643.31;5134642;27;19926;-72
2022/08/17 05:38:23;;;;;;;;;;;;;;;24.71;75.13;99645.19;5134247;27;19964;-72
2022/08/17 05:40:52;;;;;;;;;;;;;;;25.31;71.20;99644.53;5134642;27;19919;-71
2022/08/17 05:43:21;;;;;;;;;;;;;;;26.05;66.71;99643.78;5133743;27;19923;-71
2022/08/17 05:45:50;;;;;;;;;;;;;;;25.85;65.99;99645.63;5134828;27;19920;-70
2022/08/17 05:48:25;;;;;;;;;;;;;;;25.86;65.55;99647.28;5134933;27;20291;-72
2022/08/17 05:51:10;;;;;;;;;;;;;;;27.05;61.20;99650.16;5134442;27;19919;-72
2022/08/17 05:53:45;;;;;;;;;;;;;;;27.22;59.58;99643.19;5134690;27;20432;-72
2022/08/17 05:56:14;;;;;;;;;;;;;;;27.52;57.88;99650.88;5134398;27;19926;-71
2022/08/17 05:59:02;;;;;;;;;;;;;;;28.23;54.95;99653.47;5134257;27;19972;-72
2022/08/17 06:01:35;;;;;;;;;;;;;;;28.94;51.48;99652.31;5134429;27;19919;-72
2022/08/17 06:04:15;;;;;;;;;;;;;;;28.59;52.23;99654.72;5133909;27;19930;-72
2022/08/17 06:06:48;;;;;;;;;;;;;;;29.00;50.33;99655.00;5134435;27;20398;-70
2022/08/17 06:09:27;;;;;;;;;;;;;;;28.82;50.95;99651.34;5134327;28;19919;-70
2022/08/17 06:12:06;;;;;;;;;;;;;;;29.66;47.75;99660.84;5133817;27;20294;-73
2022/08/17 06:14:47;;;;;;;;;;;;;;;29.64;47.40;99653.69;5133163;27;19926;-71
2022/08/17 06:17:17;;;;;;;;;;;;;;;29.82;46.38;99665.69;5134175;27;19920;-70
2022/08/17 06:19:50;;;;;;;;;;;;;;;29.42;47.71;99668.91;5134318;28;20014;-70
2022/08/17 06:22:20;;;;;;;;;;;;;;;28.88;48.08;99658.69;5134373;28;19919;-71
2022/08/17 06:24:50;;;;;;;;;;;;;;;29.54;47.81;99658.88;5134225;28;19919;-72
2022/08/17 06:27:23;;;;;;;;;;;;;;;30.45;44.45;99654.25;5134544;27;19926;-72
2022/08/17 06:29:55;;;;;;;;;;;;;;;30.15;45.05;99655.13;5134568;28;19919;-73
2022/08/17 06:32:24;;;;;;;;;;;;;;;30.31;44.61;99663.78;5132953;27;20018;-74
2022/08/17 06:34:54;;;;;;;;;;;;;;;29.81;45.69;99669.50;5132559;28;19919;-74
2022/08/17 06:37:32;;;;;;;;;;;;;;;30.73;44.07;99667.34;5134292;28;19919;-73
2022/08/17 06:40:11;;;;;;;;;;;;;;;30.61;43.96;99663.72;5134224;28;20018;-72
2022/08/17 06:42:46;;;;;;;;;;;;;;;31.04;43.40;99663.41;5132893;28;19919;-73
2022/08/17 06:45:35;;;;;;;;;;;;;;;31.04;42.60;99658.75;5135382;27;19930;-74
2022/08/17 06:48:07;;;;;;;;;;;;;;;31.33;41.16;99651.44;5136697;27;19966;-73
2022/08/17 06:50:38;;;;;;;;;;;;;;;31.61;40.87;99658.94;5138207;27;19974;-74
2022/08/17 06:53:13;;;;;;;;;;;;;;;31.73;40.35;99661.66;5136555;27;20436;-73
2022/08/17 06:55:45;;;;;;;;;;;;;;;31.39;41.48;99657.06;5136855;27;19926;-74
2022/08/17 06:58:14;;;;;;;;;;;;;;;31.24;41.76;99658.41;5137756;27;19919;-74
2022/08/17 07:00:44;;;;;;;;;;;;;;;31.19;42.09;99660.19;5137770;27;19923;-73
2022/08/17 07:03:17;;;;;;;;;;;;;;;30.20;43.92;99663.50;5136326;27;19920;-75
2022/08/17 07:05:50;;;;;;;;;;;;;;;29.89;45.38;99666.44;5136808;27;19965;-78
2022/08/17 07:08:22;;;;;;;;;;;;;;;29.49;45.74;99668.88;5132141;27;20372;-70
2022/08/17 07:11:01;;;;;;;;;;;;;;;29.28;46.54;99670.13;5123986;27;20379;-70
2022/08/17 07:13:37;;;;;;;;;;;;;;;29.05;46.23;99670.81;5137646;27;19919;-70
2022/08/17 07:16:13;;;;;;;;;;;;;;;29.01;46.55;99670.41;5137228;27;19923;-70
2022/08/17 07:18:42;;;;;;;;;;;;;;;28.77;48.39;99668.50;5137034;27;19919;-70
2022/08/17 07:21:20;;;;;;;;;;;;;;;28.71;47.20;99667.47;5137112;27;20352;-71
2022/08/17 07:24:01;;;;;;;;;;;;;;;28.58;47.45;99667.59;5136312;27;19919;-70
2022/08/17 07:26:29;;;;;;;;;;;;;;;28.69;47.87;99671.53;5137525;27;19933;-71
2022/08/17 07:28:59;;;;;;;;;;;;;;;28.92;46.87;99674.50;5127839;27;19965;-70
2022/08/17 07:31:29;;;;;;;;;;;;;;;28.72;47.71;99671.91;5116767;28;19926;-72
2022/08/17 07:34:05;;;;;;;;;;;;;;;28.74;47.30;99671.66;5116374;28;19919;-78
2022/08/17 07:36:34;;;;;;;;;;;;;;;28.72;47.83;99668.31;5116574;28;19920;-74
2022/08/17 07:39:03;;;;;;;;;;;;;;;28.34;48.57;99671.16;5115883;28;19924;-74
2022/08/17 07:41:34;;;;;;;;;;;;;;;28.42;48.42;99674.47;5116187;28;19927;-75
2022/08/17 07:44:22;;;;;;;;;;;;;;;28.43;49.35;99664.34;5131847;27;19919;-74
2022/08/17 07:49:43;;;;;;;;;;;;;;;28.74;48.01;99666.19;5109994;27;20397;-74
2022/08/17 07:52:27;;;;;;;;;;;;;;;28.76;47.92;99662.19;5169636;27;19919;-74
2022/08/17 07:55:26;;;;;;;;;;;;;;;28.56;47.96;99666.13;5136122;27;19919;-73
2022/08/17 07:57:56;;;;;;;;;;;;;;;28.38;47.02;99667.75;5136316;27;20026;-73
2022/08/17 08:00:24;;;;;;;;;;;;;;;28.51;47.70;99670.38;5136237;27;19951;-74
2022/08/17 08:03:17;;;;;;;;;;;;;;;28.54;46.53;99680.06;5135932;27;19965;-74
2022/08/17 08:05:49;;;;;;;;;;;;;;;28.62;46.42;99678.97;5115658;28;19920;-71
2022/08/17 08:08:24;;;;;;;;;;;;;;;28.59;47.54;99676.66;5114304;28;19930;-72
2022/08/17 08:10:58;;;;;;;;;;;;;;;28.63;46.10;99673.25;5115798;28;19976;-72
2022/08/17 08:13:28;;;;;;;;;;;;;;;28.83;46.06;99673.06;5126707;27;19930;-72
2022/08/17 08:16:12;;;;;;;;;;;;;;;29.07;45.45;99668.66;5136188;27;19923;-72
2022/08/17 08:18:42;;;;;;;;;;;;;;;29.23;45.17;99670.81;5135078;27;20018;-71
2022/08/17 08:21:28;;;;;;;;;;;;;;;29.29;45.91;99669.06;5135980;27;19943;-71
2022/08/17 08:24:01;;;;;;;;;;;;;;;29.17;45.25;99671.72;5136171;27;19965;-71
2022/08/17 08:26:33;;;;;;;;;;;;;;;29.11;45.89;99669.03;5135805;27;19926;-72
2022/08/17 08:29:05;;;;;;;;;;;;;;;29.11;46.01;99674.53;5136001;27;19926;-73
2022/08/17 08:31:41;;;;;;;;;;;;;;;29.19;45.15;99674.25;5134738;27;19920;-74
2022/08/17 08:34:12;;;;;;;;;;;;;;;29.21;44.81;99666.63;5135918;27;19988;-74
2022/08/17 08:37:05;;;;;;;;;;;;;;;29.19;45.31;99671.50;5114144;28;20361;-82
2022/08/17 08:39:49;;;;;;;;;;;;;;;29.39;45.59;99677.63;5115486;28;20328;-74
2022/08/17 08:42:23;;;;;;;;;;;;;;;29.53;44.07;99676.44;5117337;27;20291;-73
2022/08/17 08:44:56;;;;;;;;;;;;;;;29.68;44.41;99672.44;5136152;27;20337;-74
2022/08/17 08:47:39;;;;;;;;;;;;;;;29.79;43.80;99667.00;5135055;27;19920;-76
2022/08/17 08:50:14;;;;;;;;;;;;;;;29.83;43.02;99667.41;5134301;27;20441;-75
2022/08/17 08:53:17;;;;;;;;;;;;;;;29.88;42.21;99671.13;5134345;27;19927;-76
2022/08/17 08:55:51;;;;;;;;;;;;;;;29.76;42.78;99661.16;5132432;27;19925;-76
2022/08/17 08:58:22;;;;;;;;;;;;;;;29.81;42.27;99656.59;5120460;27;19926;-77
2022/08/17 09:01:13;;;;;;;;;;;;;;;30.02;40.91;99660.78;5169417;27;19920;-77
2022/08/17 09:03:55;;;;;;;;;;;;;;;29.82;41.38;99660.19;5135792;27;19940;-77
2022/08/17 09:06:48;;;;;;;;;;;;;;;29.69;42.62;99663.13;5134455;27;19926;-76
2022/08/17 09:09:20;;;;;;;;;;;;;;;29.87;41.99;99663.09;5134638;27;20333;-76
2022/08/17 09:11:54;;;;;;;;;;;;;;;29.71;41.81;99658.22;5168770;27;19920;-78
2022/08/17 09:14:34;;;;;;;;;;;;;;;29.87;41.73;99663.94;5134800;27;20298;-73
2022/08/17 09:17:15;;;;;;;;;;;;;;;30.00;41.68;99662.06;5136452;27;20380;-70
2022/08/17 09:19:51;;;;;;;;;;;;;;;29.97;41.55;99660.63;5134869;27;19950;-70
2022/08/17 09:22:25;;;;;;;;;;;;;;;30.11;40.62;99653.91;5134718;27;19919;-70
2022/08/17 09:24:57;;;;;;;;;;;;;;;30.24;40.36;99657.53;5125984;27;20335;-70
2022/08/17 09:27:28;;;;;;;;;;;;;;;30.05;41.08;99668.56;5113870;28;19923;-71
2022/08/17 09:29:59;;;;;;;;;;;;;;;30.23;40.66;99664.97;5112729;28;19939;-70
2022/08/17 09:32:31;;;;;;;;;;;;;;;30.18;40.58;99665.63;5113845;28;19919;-71
2022/08/17 09:35:01;;;;;;;;;;;;;;;30.22;40.48;99655.03;5117451;27;20299;-71
2022/08/17 09:37:32;;;;;;;;;;;;;;;30.33;40.32;99645.97;5118163;27;19965;-70
2022/08/17 09:40:13;;;;;;;;;;;;;;;30.46;40.38;99655.91;5112446;28;19920;-70
2022/08/17 09:42:47;;;;;;;;;;;;;;;30.38;39.73;99648.84;5120551;27;19919;-72
2022/08/17 09:45:27;;;;;;;;;;;;;;;30.54;39.56;99652.00;5134148;27;19920;-75
2022/08/17 09:47:58;;;;;;;;;;;;;;;30.41;39.20;99648.38;5131481;27;19919;-74
2022/08/17 09:50:30;;;;;;;;;;;;;;;30.54;39.27;99647.31;5132988;27;20010;-74
2022/08/17 09:53:18;;;;;;;;;;;;;;;30.75;39.23;99640.44;5134531;27;19923;-74
2022/08/17 09:55:51;;;;;;;;;;;;;;;30.66;38.70;99639.94;5119014;27;19919;-74
2022/08/17 09:58:24;;;;;;;;;;;;;;;30.58;38.74;99637.50;5129121;27;19957;-74
2022/08/17 10:01:02;;;;;;;;;;;;;;;30.43;39.27;99634.38;5167512;27;19919;-75
2022/08/17 10:03:40;;;;;;;;;;;;;;;30.56;39.01;99642.41;5134212;27;20026;-75
2022/08/17 10:06:12;;;;;;;;;;;;;;;30.61;39.24;99637.03;5127133;27;20014;-76
2022/08/17 10:08:44;;;;;;;;;;;;;;;30.75;38.08;99644.00;5134410;27;19964;-75
2022/08/17 10:11:21;;;;;;;;;;;;;;;30.76;37.89;99639.34;5133242;28;19926;-75
2022/08/17 10:14:08;;;;;;;;;;;;;;;30.83;37.97;99637.31;5134453;28;20398;-76
2022/08/17 10:16:59;;;;;;;;;;;;;;;31.10;37.86;99640.44;5134254;27;20380;-76
2022/08/17 10:19:34;;;;;;;;;;;;;;;31.27;37.08;99635.06;5135393;27;19992;-77
2022/08/17 10:27:58;;;;;;;;;;;;;;;31.55;35.38;99635.09;5171925;27;19926;-76
2022/08/17 10:30:30;;;;;;;;;;;;;;;31.80;34.30;99629.28;5137044;27;19961;-76
2022/08/17 10:33:00;;;;;;;;;;;;;;;32.00;33.71;99628.00;5137425;27;19970;-76
2022/08/17 10:35:40;;;;;;;;;;;;;;;31.98;32.71;99624.66;5138448;27;19927;-77
2022/08/17 10:38:18;;;;;;;;;;;;;;;32.14;33.36;99619.19;5136977;27;20010;-78
2022/08/17 10:40:54;;;;;;;;;;;;;;;32.26;32.55;99626.56;5172341;27;19926;-76
2022/08/17 10:43:31;;;;;;;;;;;;;;;32.16;32.96;99629.97;5138631;27;20376;-76
2022/08/17 10:46:07;;;;;;;;;;;;;;;32.25;32.22;99631.25;5137861;27;20010;-76
2022/08/17 10:49:10;;;;;;;;;;;;;;;32.20;32.03;99622.88;5138406;27;19954;-77
2022/08/17 10:51:39;;;;;;;;;;;;;;;32.26;31.34;99624.63;5124365;27;20408;-76
2022/08/17 10:54:27;;;;;;;;;;;;;;;32.25;31.16;99625.72;5137047;27;19923;-75
2022/08/17 10:56:57;;;;;;;;;;;;;;;32.55;30.55;99619.09;5138340;27;19920;-75
2022/08/17 10:59:45;;;;;;;;;;;;;;;32.43;31.74;99625.53;5136768;27;19930;-76
2022/08/17 11:02:17;;;;;;;;;;;;;;;32.23;31.41;99618.75;5138360;27;19920;-75
2022/08/17 11:04:51;;;;;;;;;;;;;;;32.45;31.22;99620.59;5136880;27;19919;-75
2022/08/17 11:07:26;;;;;;;;;;;;;;;32.54;30.45;99622.94;5137284;27;20345;-77
2022/08/17 11:10:09;;;;;;;;;;;;;;;32.58;30.14;99629.63;5137719;27;19920;-74
2022/08/17 11:12:43;;;;;;;;;;;;;;;32.63;29.44;99615.91;5137757;27;19927;-73
2022/08/17 11:15:21;;;;;;;;;;;;;;;32.71;30.16;99619.06;5139669;27;20000;-73
2022/08/17 11:18:06;;;;;;;;;;;;;;;32.92;30.09;99619.44;5137677;27;19927;-73
2022/08/17 11:20:53;;;;;;;;;;;;;;;32.70;30.46;99617.38;5116793;28;19920;-73
2022/08/17 11:23:33;;;;;;;;;;;;;;;32.79;30.34;99615.03;5115194;28;20439;-73
2022/08/17 11:26:07;;;;;;;;;;;;;;;32.82;30.25;99617.31;5117321;28;19919;-74
2022/08/17 11:28:47;;;;;;;;;;;;;;;32.75;29.82;99611.13;5115615;28;19920;-74
2022/08/17 11:31:29;;;;;;;;;;;;;;;32.66;29.94;99609.88;5116043;28;20425;-73
2022/08/17 11:34:13;;;;;;;;;;;;;;;32.46;29.51;99600.19;5117054;28;19934;-74
2022/08/17 11:37:01;;;;;;;;;;;;;;;32.63;29.79;99602.09;5116776;28;19965;-73
2022/08/17 11:39:37;;;;;;;;;;;;;;;32.91;29.60;99596.50;5115149;28;20299;-73
2022/08/17 11:42:10;;;;;;;;;;;;;;;32.59;29.58;99600.91;5117147;28;19951;-73
2022/08/17 11:44:50;;;;;;;;;;;;;;;32.44;28.90;99596.00;5116870;28;19920;-74
2022/08/17 11:53:28;;;;;;;;;;;;;;;32.80;28.26;99594.63;5137679;27;19919;-74
2022/08/17 11:56:08;;;;;;;;;;;;;;;32.86;28.59;99588.13;5137025;27;19972;-74
2022/08/17 11:58:37;;;;;;;;;;;;;;;32.93;27.49;99599.00;5136075;27;20451;-75
2022/08/17 12:01:08;;;;;;;;;;;;;;;32.78;27.83;99590.44;5136868;27;19919;-74
2022/08/17 12:03:42;;;;;;;;;;;;;;;32.75;28.01;99586.28;5136598;27;20443;-73
2022/08/17 12:06:30;;;;;;;;;;;;;;;32.66;28.36;99585.88;5135175;27;19926;-74
2022/08/17 12:09:02;;;;;;;;;;;;;;;32.52;28.92;99586.44;5136411;27;19919;-74
2022/08/17 12:11:33;;;;;;;;;;;;;;;32.35;29.22;99581.78;5136703;27;19958;-76
2022/08/17 12:14:25;;;;;;;;;;;;;;;32.25;29.54;99576.06;5135567;27;19923;-74
2022/08/17 12:17:15;;;;;;;;;;;;;;;32.41;29.72;99580.75;5136824;27;19919;-74
2022/08/17 12:20:12;;;;;;;;;;;;;;;32.55;28.39;99569.41;5134716;27;19919;-75
2022/08/17 12:22:45;;;;;;;;;;;;;;;32.85;27.83;99586.44;5134925;27;20455;-76
2022/08/17 12:25:17;;;;;;;;;;;;;;;32.71;28.12;99566.59;5136210;27;19996;-75
2022/08/17 12:27:47;;;;;;;;;;;;;;;32.93;27.74;99571.38;5134648;27;20377;-75
2022/08/17 12:30:32;;;;;;;;;;;;;;;32.67;28.72;99559.09;5134525;27;19920;-75
2022/08/17 12:33:02;;;;;;;;;;;;;;;32.56;29.19;99562.78;5135959;27;19949;-75
2022/08/17 12:35:37;;;;;;;;;;;;;;;32.76;29.07;99565.84;5136258;27;20013;-74
2022/08/17 12:38:08;;;;;;;;;;;;;;;32.62;28.99;99553.47;5135743;27;19919;-74
2022/08/17 12:40:57;;;;;;;;;;;;;;;32.70;29.21;99561.31;5135699;27;20000;-74
2022/08/17 12:43:29;;;;;;;;;;;;;;;32.91;28.23;99555.06;5129406;27;19927;-72
2022/08/17 12:45:59;;;;;;;;;;;;;;;33.17;28.09;99560.91;5119245;27;19973;-74
2022/08/17 12:48:41;;;;;;;;;;;;;;;33.11;27.62;99553.66;5133097;27;20421;-72
2022/08/17 12:51:27;;;;;;;;;;;;;;;33.20;27.67;99557.63;5161627;27;20423;-74
2022/08/17 12:53:56;;;;;;;;;;;;;;;33.36;27.71;99556.75;5114937;28;19949;-74
2022/08/17 12:56:24;;;;;;;;;;;;;;;33.16;27.86;99553.72;5115325;28;20436;-81
2022/08/17 12:58:54;;;;;;;;;;;;;;;33.04;26.56;99551.09;5115250;28;19919;-74
2022/08/17 13:01:23;;;;;;;;;;;;;;;33.10;27.08;99549.22;5114488;28;19919;-76
2022/08/17 13:03:55;;;;;;;;;;;;;;;33.18;27.66;99551.53;5131898;27;19926;-76
2022/08/17 13:06:29;;;;;;;;;;;;;;;33.37;27.97;99550.13;5133612;27;19919;-76
2022/08/17 13:09:07;;;;;;;;;;;;;;;33.37;28.07;99555.66;5135507;27;20029;-77
2022/08/17 13:11:35;;;;;;;;;;;;;;;33.25;28.63;99553.00;5130915;27;20023;-76
2022/08/17 13:14:08;;;;;;;;;;;;;;;33.24;28.82;99548.56;5134928;27;19919;-77
2022/08/17 13:16:37;;;;;;;;;;;;;;;33.35;28.66;99549.53;5121965;27;19973;-75
2022/08/17 13:19:07;;;;;;;;;;;;;;;33.33;28.26;99548.97;5118508;27;19942;-75